UDYZVTBU

Guest
Details From UDYZ - Zvartnots
To VTBU - Rayon U-taphao Intl
Flight Number -
Tags Generated
Created
Modified
Stats Distance 3,394 nm / 6,285 km
Max Altitude 0 ft / 0 m
Waypoints 5
Social Downloads 0
Likes 0
Share VATSIM

Download

Looking for another format? Having issues loading an existing format? Contact us
Advertisement - Login to hide

Notes

Generated

Route

UDYZ BOTEK SHEBA R1867 VTBU

ID Type Via Altitude Latitude Longitude Leg Dist Tot Dist Heading (true) Name
O UDYZ APT - 0 ft / 0 m 40.14715˚ 44.37329˚ - 0 nm - -
BOTEK FIX - 0 ft / 0 m 36.79306˚ 58.62167˚ 698 nm 698 nm 102° / 111° -
SHEBA FIX - 0 ft / 0 m 32.13833˚ 70.72639˚ 660 nm 1359 nm 111° / 118° -
R1867 FIX - 0 ft / 0 m 12.69583˚ 101.00635˚ 2034 nm 3393 nm 118° / 130° -
O VTBU APT - 0 ft / 0 m 12.69583˚ 101.00635˚ 0 nm 3393 nm 0° / 180° -

Altitude Profile

Advertisement - Login to hide

Weather


0- 5 10 15 20 25 30 35+ Temperature / ° C

Clouds and Precipitation
Forecast for 2017-12-11 18:00 UTC. Updated 37 minutes ago

Ground ~20,000 ft ~40,000 ft Winds

UDYZ

Details ICAO UDYZ (EVN)
Name ZVARTNOTS
Region Armenia
Timezone Asia/Yerevan (UTC+4.0)
Stats Elevation 2,838 ft / 865 m (AMSL)
Location 40.147271° 44.395880°
Runways 1
Magnetic Variation 6.200° E

METAR

UDYZ 111330Z 23001KT 6000 NSC 04/M03 Q1027 R09/000070 NOSIG

Decode

TAF

TAF UDYZ 110508Z 1106/1206 14006KT 2000 BR NSC BECMG 1108/1109 6000 NSW

Decode

Departure Runways

ID Width Length Bearing (true) Bearing (mag) Surface Threshold Offset Overrun Length
09 184 ft / 56 m 12,601 ft / 3,841 m 89.59° 83.39° Asphalt 0 ft / 0 m 0 ft / 0 m
27 184 ft / 56 m 12,601 ft / 3,841 m 269.62° 263.42° Asphalt 0 ft / 0 m 0 ft / 0 m

VTBU

Details ICAO VTBU (UTP)
Name Rayon U-Taphao Intl
Region Thailand
Timezone Asia/Bangkok (UTC+7.0)
Stats Elevation 59 ft / 18 m (AMSL)
Location 12.679954° 101.005033°
Runways 1
Magnetic Variation 0.519° W

METAR

VTBU 111330Z 00000KT 2000 BR FEW020 SCT100 27/21 Q1013 NOSIG

Decode

TAF

TAF VTBU 111100Z 1112/1212 36004KT 3000 BR FEW020 BECMG 1119/1121 01004KT 2000 BR BECMG 1202/1204 17006KT 4000 HZ

Decode

Destination Runways

ID Width Length Bearing (true) Bearing (mag) Surface Threshold Offset Overrun Length
18 197 ft / 60 m 11,627 ft / 3,544 m 184.62° 185.14° Asphalt 0 ft / 0 m 1,000 ft / 305 m
36 197 ft / 60 m 11,627 ft / 3,544 m 4.62° 5.14° Asphalt 0 ft / 0 m 1,000 ft / 305 m

Approach Navaids

Runway Type Ident Frequency Range Bearing (true) Bearing (mag) Slope Elevation
18 Localiser IBUT 111.10 MHz 18 nm / 33 km 184.62° 185.14° - 24 ft / 7 m (AMSL)
18 Glidescope IBUT 111.10 MHz 10 nm / 19 km 184.62° 185.14° 3.00° 59 ft / 18 m (AMSL)
18 DME IBUT 111.10 MHz 18 nm / 33 km - - - 59 ft / 18 m (AMSL)